sensor_id;sensor_type;location;lat;lon;timestamp;pressure;altitude;pressure_sealevel;temperature;humidity
8416;BME280;4245;42.120;24.732;2023-04-19T00:01:41;98863.03;;;11.22;100.00
8416;BME280;4245;42.120;24.732;2023-04-19T00:04:08;98866.19;;;11.27;100.00
8416;BME280;4245;42.120;24.732;2023-04-19T00:06:35;98861.44;;;11.30;100.00
8416;BME280;4245;42.120;24.732;2023-04-19T00:09:02;98860.22;;;11.23;100.00
8416;BME280;4245;42.120;24.732;2023-04-19T00:11:29;98861.34;;;11.32;100.00
8416;BME280;4245;42.120;24.732;2023-04-19T00:13:58;98853.38;;;11.32;100.00
8416;BME280;4245;42.120;24.732;2023-04-19T00:16:25;98849.97;;;11.30;100.00
8416;BME280;4245;42.120;24.732;2023-04-19T00:18:52;98841.84;;;11.43;100.00
8416;BME280;4245;42.120;24.732;2023-04-19T00:21:19;98829.88;;;11.48;100.00
8416;BME280;4245;42.120;24.732;2023-04-19T00:23:46;98832.41;;;11.50;100.00
8416;BME280;4245;42.120;24.732;2023-04-19T00:26:13;98831.56;;;11.38;100.00
8416;BME280;4245;42.120;24.732;2023-04-19T00:28:40;98831.94;;;11.33;100.00
8416;BME280;4245;42.120;24.732;2023-04-19T00:31:08;98832.53;;;11.48;100.00
8416;BME280;4245;42.120;24.732;2023-04-19T00:33:35;98833.84;;;11.54;100.00
8416;BME280;4245;42.120;24.732;2023-04-19T00:36:02;98820.22;;;11.47;100.00
8416;BME280;4245;42.120;24.732;2023-04-19T00:38:29;98824.91;;;11.44;100.00
8416;BME280;4245;42.120;24.732;2023-04-19T00:40:58;98823.59;;;11.38;100.00
8416;BME280;4245;42.120;24.732;2023-04-19T00:43:25;98818.16;;;11.28;100.00
8416;BME280;4245;42.120;24.732;2023-04-19T00:45:52;98824.81;;;11.34;100.00
8416;BME280;4245;42.120;24.732;2023-04-19T00:48:21;98827.47;;;11.34;100.00
8416;BME280;4245;42.120;24.732;2023-04-19T00:50:48;98828.22;;;11.36;100.00
8416;BME280;4245;42.120;24.732;2023-04-19T00:53:15;98824.59;;;11.26;100.00
8416;BME280;4245;42.120;24.732;2023-04-19T00:55:42;98831.34;;;11.30;100.00
8416;BME280;4245;42.120;24.732;2023-04-19T00:58:09;98822.25;;;11.44;100.00
8416;BME280;4245;42.120;24.732;2023-04-19T01:00:36;98820.06;;;11.49;100.00
8416;BME280;4245;42.120;24.732;2023-04-19T01:03:03;98815.25;;;11.43;100.00
8416;BME280;4245;42.120;24.732;2023-04-19T01:05:32;98822.53;;;11.29;100.00
8416;BME280;4245;42.120;24.732;2023-04-19T01:07:59;98816.47;;;11.39;100.00
8416;BME280;4245;42.120;24.732;2023-04-19T01:10:27;98813.97;;;11.26;100.00
8416;BME280;4245;42.120;24.732;2023-04-19T01:12:54;98807.78;;;11.37;100.00
8416;BME280;4245;42.120;24.732;2023-04-19T01:15:21;98811.28;;;11.37;100.00
8416;BME280;4245;42.120;24.732;2023-04-19T01:17:48;98799.56;;;11.40;100.00
8416;BME280;4245;42.120;24.732;2023-04-19T01:20:14;98804.13;;;11.38;100.00
8416;BME280;4245;42.120;24.732;2023-04-19T01:22:43;98803.06;;;11.40;100.00
8416;BME280;4245;42.120;24.732;2023-04-19T01:25:10;98805.13;;;11.37;100.00
8416;BME280;4245;42.120;24.732;2023-04-19T01:27:37;98800.41;;;11.29;100.00
8416;BME280;4245;42.120;24.732;2023-04-19T01:30:05;98791.13;;;11.23;100.00
8416;BME280;4245;42.120;24.732;2023-04-19T01:32:32;98788.94;;;11.28;100.00
8416;BME280;4245;42.120;24.732;2023-04-19T01:35:00;98793.66;;;11.36;100.00
8416;BME280;4245;42.120;24.732;2023-04-19T01:37:27;98781.06;;;11.38;100.00
8416;BME280;4245;42.120;24.732;2023-04-19T01:39:55;98785.78;;;11.34;100.00
8416;BME280;4245;42.120;24.732;2023-04-19T01:42:22;98781.19;;;11.37;100.00
8416;BME280;4245;42.120;24.732;2023-04-19T01:44:49;98781.44;;;11.33;100.00
8416;BME280;4245;42.120;24.732;2023-04-19T01:47:16;98783.00;;;11.47;100.00
8416;BME280;4245;42.120;24.732;2023-04-19T01:49:43;98783.81;;;11.48;100.00
8416;BME280;4245;42.120;24.732;2023-04-19T01:52:10;98776.56;;;11.39;100.00
8416;BME280;4245;42.120;24.732;2023-04-19T01:54:37;98778.56;;;11.25;100.00
8416;BME280;4245;42.120;24.732;2023-04-19T01:57:05;98775.41;;;11.31;100.00
8416;BME280;4245;42.120;24.732;2023-04-19T01:59:32;98771.69;;;11.23;100.00
8416;BME280;4245;42.120;24.732;2023-04-19T02:01:59;98767.91;;;11.25;100.00
8416;BME280;4245;42.120;24.732;2023-04-19T02:04:26;98772.91;;;11.08;100.00
8416;BME280;4245;42.120;24.732;2023-04-19T02:06:53;98774.56;;;11.20;100.00
8416;BME280;4245;42.120;24.732;2023-04-19T02:09:20;98769.72;;;11.25;100.00
8416;BME280;4245;42.120;24.732;2023-04-19T02:11:47;98772.66;;;11.11;100.00
8416;BME280;4245;42.120;24.732;2023-04-19T02:14:18;98766.13;;;11.15;100.00
8416;BME280;4245;42.120;24.732;2023-04-19T02:16:45;98763.13;;;11.08;100.00
8416;BME280;4245;42.120;24.732;2023-04-19T02:19:12;98765.41;;;11.13;100.00
8416;BME280;4245;42.120;24.732;2023-04-19T02:21:39;98759.22;;;11.23;100.00
8416;BME280;4245;42.120;24.732;2023-04-19T02:24:06;98758.72;;;11.18;100.00
8416;BME280;4245;42.120;24.732;2023-04-19T02:26:33;98756.81;;;11.09;100.00
8416;BME280;4245;42.120;24.732;2023-04-19T02:29:00;98752.13;;;11.13;100.00
8416;BME280;4245;42.120;24.732;2023-04-19T02:31:28;98751.28;;;11.01;100.00
8416;BME280;4245;42.120;24.732;2023-04-19T02:33:55;98749.84;;;10.97;100.00
8416;BME280;4245;42.120;24.732;2023-04-19T02:36:22;98748.88;;;10.98;100.00
8416;BME280;4245;42.120;24.732;2023-04-19T02:38:50;98748.88;;;10.98;100.00
8416;BME280;4245;42.120;24.732;2023-04-19T02:41:18;98753.47;;;11.07;100.00
8416;BME280;4245;42.120;24.732;2023-04-19T02:43:45;98744.88;;;11.04;100.00
8416;BME280;4245;42.120;24.732;2023-04-19T02:46:12;98753.31;;;11.09;100.00
8416;BME280;4245;42.120;24.732;2023-04-19T02:48:40;98742.09;;;11.05;100.00
8416;BME280;4245;42.120;24.732;2023-04-19T02:51:07;98742.47;;;11.12;100.00
8416;BME280;4245;42.120;24.732;2023-04-19T02:53:34;98739.69;;;11.13;100.00
8416;BME280;4245;42.120;24.732;2023-04-19T02:56:01;98744.75;;;11.16;100.00
8416;BME280;4245;42.120;24.732;2023-04-19T02:58:28;98748.72;;;11.22;100.00
8416;BME280;4245;42.120;24.732;2023-04-19T03:00:55;98745.31;;;11.31;100.00
8416;BME280;4245;42.120;24.732;2023-04-19T03:03:22;98754.09;;;11.43;100.00
8416;BME280;4245;42.120;24.732;2023-04-19T03:05:50;98756.66;;;11.33;100.00
8416;BME280;4245;42.120;24.732;2023-04-19T03:08:17;98749.59;;;11.43;100.00
8416;BME280;4245;42.120;24.732;2023-04-19T03:10:44;98759.25;;;11.55;100.00
8416;BME280;4245;42.120;24.732;2023-04-19T03:13:11;98759.13;;;11.57;100.00
8416;BME280;4245;42.120;24.732;2023-04-19T03:15:38;98759.13;;;11.57;100.00
8416;BME280;4245;42.120;24.732;2023-04-19T03:18:05;98756.63;;;11.44;100.00
8416;BME280;4245;42.120;24.732;2023-04-19T03:20:32;98749.69;;;11.21;100.00
8416;BME280;4245;42.120;24.732;2023-04-19T03:23:00;98755.69;;;11.34;100.00
8416;BME280;4245;42.120;24.732;2023-04-19T03:25:27;98753.41;;;11.29;100.00
8416;BME280;4245;42.120;24.732;2023-04-19T03:27:55;98755.44;;;11.37;100.00
8416;BME280;4245;42.120;24.732;2023-04-19T03:30:22;98752.91;;;11.36;100.00
8416;BME280;4245;42.120;24.732;2023-04-19T03:32:49;98752.44;;;11.30;100.00
8416;BME280;4245;42.120;24.732;2023-04-19T03:35:17;98754.34;;;11.40;100.00
8416;BME280;4245;42.120;24.732;2023-04-19T03:37:44;98756.16;;;11.39;100.00
8416;BME280;4245;42.120;24.732;2023-04-19T03:40:13;98763.69;;;11.66;100.00
8416;BME280;4245;42.120;24.732;2023-04-19T03:42:40;98761.81;;;11.57;100.00
8416;BME280;4245;42.120;24.732;2023-04-19T03:45:08;98760.22;;;11.54;100.00
8416;BME280;4245;42.120;24.732;2023-04-19T03:47:35;98759.84;;;11.59;100.00
8416;BME280;4245;42.120;24.732;2023-04-19T03:50:02;98756.72;;;11.54;100.00
8416;BME280;4245;42.120;24.732;2023-04-19T03:52:29;98754.31;;;11.51;100.00
8416;BME280;4245;42.120;24.732;2023-04-19T03:54:56;98758.53;;;11.53;100.00
8416;BME280;4245;42.120;24.732;2023-04-19T03:57:24;98755.72;;;11.66;100.00
8416;BME280;4245;42.120;24.732;2023-04-19T03:59:51;98758.16;;;11.58;100.00
8416;BME280;4245;42.120;24.732;2023-04-19T04:02:18;98764.66;;;11.65;100.00
8416;BME280;4245;42.120;24.732;2023-04-19T04:04:45;98770.09;;;11.63;100.00
8416;BME280;4245;42.120;24.732;2023-04-19T04:07:12;98764.91;;;11.62;100.00
8416;BME280;4245;42.120;24.732;2023-04-19T04:09:39;98770.94;;;11.64;100.00
8416;BME280;4245;42.120;24.732;2023-04-19T04:12:06;98758.84;;;11.71;100.00
8416;BME280;4245;42.120;24.732;2023-04-19T04:14:34;98764.78;;;11.74;100.00
8416;BME280;4245;42.120;24.732;2023-04-19T04:17:01;98754.72;;;11.67;100.00
8416;BME280;4245;42.120;24.732;2023-04-19T04:19:28;98758.72;;;11.72;100.00
8416;BME280;4245;42.120;24.732;2023-04-19T04:21:55;98751.81;;;11.70;100.00
8416;BME280;4245;42.120;24.732;2023-04-19T04:24:22;98756.19;;;11.71;100.00
8416;BME280;4245;42.120;24.732;2023-04-19T04:26:50;98761.16;;;11.75;100.00
8416;BME280;4245;42.120;24.732;2023-04-19T04:29:17;98762.00;;;11.76;100.00
8416;BME280;4245;42.120;24.732;2023-04-19T04:31:46;98758.34;;;11.77;100.00
8416;BME280;4245;42.120;24.732;2023-04-19T04:34:13;98757.38;;;11.78;100.00
8416;BME280;4245;42.120;24.732;2023-04-19T04:36:40;98760.13;;;11.88;100.00
8416;BME280;4245;42.120;24.732;2023-04-19T04:39:06;98762.47;;;11.81;100.00
8416;BME280;4245;42.120;24.732;2023-04-19T04:41:36;98762.66;;;11.89;100.00
8416;BME280;4245;42.120;24.732;2023-04-19T04:44:05;98766.47;;;11.96;100.00
8416;BME280;4245;42.120;24.732;2023-04-19T04:46:33;98771.09;;;11.94;100.00
8416;BME280;4245;42.120;24.732;2023-04-19T04:49:01;98770.78;;;12.08;100.00
8416;BME280;4245;42.120;24.732;2023-04-19T04:51:28;98771.25;;;12.13;100.00
8416;BME280;4245;42.120;24.732;2023-04-19T04:53:56;98775.00;;;12.11;100.00
8416;BME280;4245;42.120;24.732;2023-04-19T04:56:23;98777.22;;;12.27;100.00
8416;BME280;4245;42.120;24.732;2023-04-19T04:58:51;98776.88;;;12.41;100.00
8416;BME280;4245;42.120;24.732;2023-04-19T05:01:18;98780.25;;;12.43;100.00
8416;BME280;4245;42.120;24.732;2023-04-19T05:03:46;98781.16;;;12.53;100.00
8416;BME280;4245;42.120;24.732;2023-04-19T05:06:14;98780.16;;;12.54;100.00
8416;BME280;4245;42.120;24.732;2023-04-19T05:08:41;98781.47;;;12.59;100.00
8416;BME280;4245;42.120;24.732;2023-04-19T05:11:08;98786.25;;;12.66;100.00
8416;BME280;4245;42.120;24.732;2023-04-19T05:13:35;98785.88;;;12.70;100.00
8416;BME280;4245;42.120;24.732;2023-04-19T05:16:02;98782.06;;;12.63;100.00
8416;BME280;4245;42.120;24.732;2023-04-19T05:18:29;98787.28;;;12.74;100.00
8416;BME280;4245;42.120;24.732;2023-04-19T05:20:56;98787.25;;;12.95;100.00
8416;BME280;4245;42.120;24.732;2023-04-19T05:23:24;98788.53;;;13.00;100.00
8416;BME280;4245;42.120;24.732;2023-04-19T05:25:51;98789.19;;;12.93;100.00
8416;BME280;4245;42.120;24.732;2023-04-19T05:28:18;98787.19;;;12.85;100.00
8416;BME280;4245;42.120;24.732;2023-04-19T05:30:45;98799.31;;;12.99;100.00
8416;BME280;4245;42.120;24.732;2023-04-19T05:33:12;98804.53;;;13.00;100.00
8416;BME280;4245;42.120;24.732;2023-04-19T05:35:39;98792.69;;;12.93;100.00
8416;BME280;4245;42.120;24.732;2023-04-19T05:38:06;98796.38;;;12.92;100.00
8416;BME280;4245;42.120;24.732;2023-04-19T05:40:34;98795.38;;;12.93;100.00
8416;BME280;4245;42.120;24.732;2023-04-19T05:43:01;98809.28;;;12.97;100.00
8416;BME280;4245;42.120;24.732;2023-04-19T05:45:28;98789.63;;;12.98;100.00
8416;BME280;4245;42.120;24.732;2023-04-19T05:47:55;98799.75;;;13.04;100.00
8416;BME280;4245;42.120;24.732;2023-04-19T05:50:22;98798.31;;;12.90;100.00
8416;BME280;4245;42.120;24.732;2023-04-19T05:52:49;98793.88;;;13.00;100.00
8416;BME280;4245;42.120;24.732;2023-04-19T05:55:16;98791.13;;;13.12;100.00
8416;BME280;4245;42.120;24.732;2023-04-19T05:57:45;98793.66;;;13.13;100.00
8416;BME280;4245;42.120;24.732;2023-04-19T06:00:12;98794.38;;;13.15;100.00
8416;BME280;4245;42.120;24.732;2023-04-19T06:02:40;98788.31;;;13.13;100.00
8416;BME280;4245;42.120;24.732;2023-04-19T06:05:08;98795.47;;;13.13;100.00
8416;BME280;4245;42.120;24.732;2023-04-19T06:07:35;98793.97;;;13.20;100.00
8416;BME280;4245;42.120;24.732;2023-04-19T06:10:03;98802.44;;;13.34;100.00
8416;BME280;4245;42.120;24.732;2023-04-19T06:12:30;98797.00;;;13.45;100.00
8416;BME280;4245;42.120;24.732;2023-04-19T06:14:59;98797.13;;;13.54;100.00
8416;BME280;4245;42.120;24.732;2023-04-19T06:17:25;98795.75;;;13.59;100.00
8416;BME280;4245;42.120;24.732;2023-04-19T06:19:53;98801.09;;;13.59;100.00
8416;BME280;4245;42.120;24.732;2023-04-19T06:22:20;98802.47;;;13.54;100.00
8416;BME280;4245;42.120;24.732;2023-04-19T06:24:47;98807.41;;;13.58;100.00
8416;BME280;4245;42.120;24.732;2023-04-19T06:27:15;98796.00;;;13.56;100.00
8416;BME280;4245;42.120;24.732;2023-04-19T06:29:42;98798.69;;;13.66;100.00
8416;BME280;4245;42.120;24.732;2023-04-19T06:32:11;98792.81;;;13.81;100.00
8416;BME280;4245;42.120;24.732;2023-04-19T06:34:38;98799.28;;;13.98;100.00
8416;BME280;4245;42.120;24.732;2023-04-19T06:37:05;98797.16;;;13.92;100.00
8416;BME280;4245;42.120;24.732;2023-04-19T06:39:32;98789.44;;;13.99;100.00
8416;BME280;4245;42.120;24.732;2023-04-19T06:41:59;98800.13;;;14.27;100.00
8416;BME280;4245;42.120;24.732;2023-04-19T06:47:01;98803.03;;;14.53;100.00
8416;BME280;4245;42.120;24.732;2023-04-19T06:49:30;98816.31;;;14.82;100.00
8416;BME280;4245;42.120;24.732;2023-04-19T06:51:58;98816.16;;;14.93;100.00
8416;BME280;4245;42.120;24.732;2023-04-19T06:54:25;98824.59;;;15.26;100.00
8416;BME280;4245;42.120;24.732;2023-04-19T06:56:52;98817.88;;;15.49;100.00
8416;BME280;4245;42.120;24.732;2023-04-19T06:59:19;98822.31;;;15.68;100.00
8416;BME280;4245;42.120;24.732;2023-04-19T07:01:47;98822.41;;;16.11;100.00
8416;BME280;4245;42.120;24.732;2023-04-19T07:04:14;98822.56;;;15.92;100.00
8416;BME280;4245;42.120;24.732;2023-04-19T07:06:42;98820.47;;;15.68;100.00
8416;BME280;4245;42.120;24.732;2023-04-19T07:09:09;98821.69;;;15.74;100.00
8416;BME280;4245;42.120;24.732;2023-04-19T07:11:36;98820.03;;;15.90;100.00
8416;BME280;4245;42.120;24.732;2023-04-19T07:14:03;98812.91;;;15.99;100.00
8416;BME280;4245;42.120;24.732;2023-04-19T07:16:30;98816.81;;;16.40;100.00
8416;BME280;4245;42.120;24.732;2023-04-19T07:18:58;98826.38;;;16.86;100.00
8416;BME280;4245;42.120;24.732;2023-04-19T07:21:25;98826.00;;;17.07;100.00
8416;BME280;4245;42.120;24.732;2023-04-19T07:23:56;98833.31;;;17.30;100.00
8416;BME280;4245;42.120;24.732;2023-04-19T07:26:23;98832.84;;;17.35;100.00
8416;BME280;4245;42.120;24.732;2023-04-19T07:28:50;98836.00;;;17.30;100.00
8416;BME280;4245;42.120;24.732;2023-04-19T07:31:17;98834.84;;;16.99;100.00
8416;BME280;4245;42.120;24.732;2023-04-19T07:33:44;98829.91;;;17.20;100.00
8416;BME280;4245;42.120;24.732;2023-04-19T07:36:11;98833.41;;;17.13;100.00
8416;BME280;4245;42.120;24.732;2023-04-19T07:38:38;98843.59;;;16.22;100.00
8416;BME280;4245;42.120;24.732;2023-04-19T07:41:07;98834.72;;;16.04;100.00
8416;BME280;4245;42.120;24.732;2023-04-19T07:43:34;98832.50;;;16.35;100.00
8416;BME280;4245;42.120;24.732;2023-04-19T07:46:07;98830.06;;;16.59;100.00
8416;BME280;4245;42.120;24.732;2023-04-19T07:48:34;98835.84;;;16.98;100.00
8416;BME280;4245;42.120;24.732;2023-04-19T07:51:08;98831.06;;;16.84;100.00
8416;BME280;4245;42.120;24.732;2023-04-19T07:53:35;98841.00;;;16.91;100.00
8416;BME280;4245;42.120;24.732;2023-04-19T07:56:02;98839.88;;;17.28;100.00
8416;BME280;4245;42.120;24.732;2023-04-19T07:58:31;98852.72;;;17.50;100.00
8416;BME280;4245;42.120;24.732;2023-04-19T08:00:58;98838.94;;;16.60;100.00
8416;BME280;4245;42.120;24.732;2023-04-19T08:03:25;98845.06;;;16.70;100.00
8416;BME280;4245;42.120;24.732;2023-04-19T08:05:52;98840.41;;;17.06;100.00
8416;BME280;4245;42.120;24.732;2023-04-19T08:08:19;98853.66;;;17.67;100.00
8416;BME280;4245;42.120;24.732;2023-04-19T08:10:46;98856.72;;;17.80;85.72
8416;BME280;4245;42.120;24.732;2023-04-19T08:13:13;98858.50;;;17.63;81.75
8416;BME280;4245;42.120;24.732;2023-04-19T08:15:41;98845.19;;;18.04;79.96
8416;BME280;4245;42.120;24.732;2023-04-19T08:18:09;98847.66;;;17.89;78.95
8416;BME280;4245;42.120;24.732;2023-04-19T08:20:36;98843.41;;;17.70;78.47
8416;BME280;4245;42.120;24.732;2023-04-19T08:23:03;98848.59;;;17.64;79.49
8416;BME280;4245;42.120;24.732;2023-04-19T08:25:31;98850.84;;;17.85;79.14
8416;BME280;4245;42.120;24.732;2023-04-19T08:27:58;98855.28;;;18.10;77.10
8416;BME280;4245;42.120;24.732;2023-04-19T08:30:25;98844.34;;;18.03;78.98
8416;BME280;4245;42.120;24.732;2023-04-19T08:32:53;98845.19;;;18.12;79.17
8416;BME280;4245;42.120;24.732;2023-04-19T08:35:21;98847.56;;;18.47;75.53
8416;BME280;4245;42.120;24.732;2023-04-19T08:37:49;98839.84;;;18.60;74.56
8416;BME280;4245;42.120;24.732;2023-04-19T08:40:17;98840.34;;;18.80;73.21
8416;BME280;4245;42.120;24.732;2023-04-19T08:42:44;98831.56;;;19.02;73.16
8416;BME280;4245;42.120;24.732;2023-04-19T08:45:11;98840.41;;;19.27;70.81
8416;BME280;4245;42.120;24.732;2023-04-19T08:47:40;98837.94;;;19.65;69.85
8416;BME280;4245;42.120;24.732;2023-04-19T08:50:09;98825.44;;;20.48;66.30
8416;BME280;4245;42.120;24.732;2023-04-19T08:52:36;98827.69;;;20.97;64.09
8416;BME280;4245;42.120;24.732;2023-04-19T08:55:05;98823.41;;;20.88;65.17
8416;BME280;4245;42.120;24.732;2023-04-19T08:57:34;98814.44;;;20.35;66.25
8416;BME280;4245;42.120;24.732;2023-04-19T09:00:02;98811.16;;;19.94;68.07
8416;BME280;4245;42.120;24.732;2023-04-19T09:02:43;98816.19;;;19.66;65.74
8416;BME280;4245;42.120;24.732;2023-04-19T09:05:13;98820.13;;;19.86;64.93
8416;BME280;4245;42.120;24.732;2023-04-19T09:07:40;98828.66;;;20.21;63.28
8416;BME280;4245;42.120;24.732;2023-04-19T09:10:09;98836.81;;;19.51;65.16
8416;BME280;4245;42.120;24.732;2023-04-19T09:12:37;98826.00;;;19.59;64.56
8416;BME280;4245;42.120;24.732;2023-04-19T09:15:06;98815.84;;;19.22;65.85
8416;BME280;4245;42.120;24.732;2023-04-19T09:17:33;98812.63;;;19.27;67.45
8416;BME280;4245;42.120;24.732;2023-04-19T09:20:01;98813.47;;;19.74;65.08
8416;BME280;4245;42.120;24.732;2023-04-19T09:22:30;98816.03;;;19.99;64.79
8416;BME280;4245;42.120;24.732;2023-04-19T09:24:58;98816.25;;;20.12;63.00
8416;BME280;4245;42.120;24.732;2023-04-19T09:27:27;98823.06;;;19.46;66.84
8416;BME280;4245;42.120;24.732;2023-04-19T09:29:55;98815.22;;;19.04;69.46
8416;BME280;4245;42.120;24.732;2023-04-19T09:32:23;98818.00;;;19.35;69.20
8416;BME280;4245;42.120;24.732;2023-04-19T09:34:54;98814.63;;;19.33;67.36
8416;BME280;4245;42.120;24.732;2023-04-19T09:37:21;98821.44;;;19.13;68.77
8416;BME280;4245;42.120;24.732;2023-04-19T09:39:50;98818.31;;;18.85;69.09
8416;BME280;4245;42.120;24.732;2023-04-19T09:42:17;98803.72;;;18.71;70.63
8416;BME280;4245;42.120;24.732;2023-04-19T09:44:57;98807.34;;;19.41;68.46
8416;BME280;4245;42.120;24.732;2023-04-19T09:47:24;98811.53;;;20.59;64.64
8416;BME280;4245;42.120;24.732;2023-04-19T09:50:05;98809.66;;;19.61;64.56
8416;BME280;4245;42.120;24.732;2023-04-19T09:52:33;98808.53;;;19.47;65.96
8416;BME280;4245;42.120;24.732;2023-04-19T09:55:02;98799.25;;;19.88;65.53
8416;BME280;4245;42.120;24.732;2023-04-19T09:57:30;98801.63;;;20.89;63.47
8416;BME280;4245;42.120;24.732;2023-04-19T09:59:58;98802.47;;;21.63;59.09
8416;BME280;4245;42.120;24.732;2023-04-19T10:02:29;98799.56;;;22.36;57.07
8416;BME280;4245;42.120;24.732;2023-04-19T10:04:57;98794.38;;;23.18;54.14
8416;BME280;4245;42.120;24.732;2023-04-19T10:07:24;98793.81;;;23.70;53.12
8416;BME280;4245;42.120;24.732;2023-04-19T10:09:54;98782.09;;;24.50;50.82
8416;BME280;4245;42.120;24.732;2023-04-19T10:12:24;98782.69;;;24.85;47.86
8416;BME280;4245;42.120;24.732;2023-04-19T10:14:53;98790.63;;;24.21;48.34
8416;BME280;4245;42.120;24.732;2023-04-19T10:17:21;98788.97;;;24.66;47.47
8416;BME280;4245;42.120;24.732;2023-04-19T10:19:53;98774.56;;;24.85;44.76
8416;BME280;4245;42.120;24.732;2023-04-19T10:22:22;98781.03;;;24.84;46.92
8416;BME280;4245;42.120;24.732;2023-04-19T10:25:11;98779.31;;;25.29;46.97
8416;BME280;4245;42.120;24.732;2023-04-19T10:27:41;98784.13;;;25.85;44.35
8416;BME280;4245;42.120;24.732;2023-04-19T10:30:18;98779.56;;;24.75;44.71
8416;BME280;4245;42.120;24.732;2023-04-19T10:32:51;98776.91;;;24.88;45.86
8416;BME280;4245;42.120;24.732;2023-04-19T10:35:19;98776.63;;;25.09;45.04
8416;BME280;4245;42.120;24.732;2023-04-19T10:38:07;98766.56;;;25.23;46.00
8416;BME280;4245;42.120;24.732;2023-04-19T10:40:53;98765.38;;;24.47;45.23
8416;BME280;4245;42.120;24.732;2023-04-19T10:43:23;98759.94;;;24.99;44.12
8416;BME280;4245;42.120;24.732;2023-04-19T10:45:50;98765.13;;;25.14;43.68
8416;BME280;4245;42.120;24.732;2023-04-19T10:48:38;98768.25;;;26.45;41.74
8416;BME280;4245;42.120;24.732;2023-04-19T10:51:11;98762.31;;;27.77;36.79
8416;BME280;4245;42.120;24.732;2023-04-19T10:53:56;98763.38;;;27.21;37.84
8416;BME280;4245;42.120;24.732;2023-04-19T10:56:57;98747.47;;;26.75;39.54
8416;BME280;4245;42.120;24.732;2023-04-19T10:59:28;98751.78;;;25.64;40.64
8416;BME280;4245;42.120;24.732;2023-04-19T11:01:56;98754.38;;;25.39;42.91
8416;BME280;4245;42.120;24.732;2023-04-19T11:04:58;98747.63;;;24.97;43.56
8416;BME280;4245;42.120;24.732;2023-04-19T11:07:25;98751.59;;;24.35;45.86
8416;BME280;4245;42.120;24.732;2023-04-19T11:09:52;98746.56;;;24.25;45.31
8416;BME280;4245;42.120;24.732;2023-04-19T11:12:20;98744.75;;;23.65;46.95
8416;BME280;4245;42.120;24.732;2023-04-19T11:14:51;98744.16;;;23.29;48.67
8416;BME280;4245;42.120;24.732;2023-04-19T11:17:19;98739.47;;;23.03;49.16
8416;BME280;4245;42.120;24.732;2023-04-19T11:19:53;98742.38;;;23.02;49.35
8416;BME280;4245;42.120;24.732;2023-04-19T11:22:33;98739.78;;;22.87;50.33
8416;BME280;4245;42.120;24.732;2023-04-19T11:25:05;98740.19;;;22.84;50.20
8416;BME280;4245;42.120;24.732;2023-04-19T11:27:32;98735.56;;;22.78;49.89
8416;BME280;4245;42.120;24.732;2023-04-19T11:30:06;98728.16;;;23.40;48.40
8416;BME280;4245;42.120;24.732;2023-04-19T11:32:33;98737.66;;;23.64;44.35
8416;BME280;4245;42.120;24.732;2023-04-19T11:35:05;98730.84;;;23.95;43.99
8416;BME280;4245;42.120;24.732;2023-04-19T11:37:33;98728.59;;;24.77;43.10
8416;BME280;4245;42.120;24.732;2023-04-19T11:40:01;98731.97;;;26.26;41.34
8416;BME280;4245;42.120;24.732;2023-04-19T11:42:29;98745.50;;;27.43;36.59
8416;BME280;4245;42.120;24.732;2023-04-19T11:44:56;98738.31;;;27.97;33.38
8416;BME280;4245;42.120;24.732;2023-04-19T11:47:26;98748.59;;;27.47;33.00
8416;BME280;4245;42.120;24.732;2023-04-19T11:49:53;98744.63;;;27.49;34.55
8416;BME280;4245;42.120;24.732;2023-04-19T11:52:22;98738.63;;;28.19;34.76
8416;BME280;4245;42.120;24.732;2023-04-19T11:54:50;98732.97;;;27.72;36.19
8416;BME280;4245;42.120;24.732;2023-04-19T11:57:27;98732.63;;;26.96;37.90
8416;BME280;4245;42.120;24.732;2023-04-19T12:00:05;98731.38;;;26.17;39.28
8416;BME280;4245;42.120;24.732;2023-04-19T12:02:38;98732.75;;;24.86;42.67
8416;BME280;4245;42.120;24.732;2023-04-19T12:05:07;98729.06;;;24.35;44.70
8416;BME280;4245;42.120;24.732;2023-04-19T12:07:34;98736.69;;;23.92;45.81
8416;BME280;4245;42.120;24.732;2023-04-19T12:10:07;98730.72;;;23.08;47.76
8416;BME280;4245;42.120;24.732;2023-04-19T12:12:36;98733.09;;;22.83;48.92
8416;BME280;4245;42.120;24.732;2023-04-19T12:15:04;98727.34;;;22.43;50.81
8416;BME280;4245;42.120;24.732;2023-04-19T12:17:31;98728.97;;;22.38;50.93
8416;BME280;4245;42.120;24.732;2023-04-19T12:19:59;98729.88;;;22.17;52.34
8416;BME280;4245;42.120;24.732;2023-04-19T12:22:26;98726.03;;;21.90;54.69
8416;BME280;4245;42.120;24.732;2023-04-19T12:24:53;98736.72;;;21.77;55.31
8416;BME280;4245;42.120;24.732;2023-04-19T12:27:20;98736.69;;;21.56;59.15
8416;BME280;4245;42.120;24.732;2023-04-19T12:29:47;98727.44;;;21.29;62.40
8416;BME280;4245;42.120;24.732;2023-04-19T12:32:14;98716.72;;;21.21;64.39
8416;BME280;4245;42.120;24.732;2023-04-19T12:34:41;98723.28;;;21.69;64.79
8416;BME280;4245;42.120;24.732;2023-04-19T12:37:10;98720.84;;;21.74;65.04
8416;BME280;4245;42.120;24.732;2023-04-19T12:39:36;98713.75;;;21.88;65.74
8416;BME280;4245;42.120;24.732;2023-04-19T12:42:03;98708.59;;;22.98;61.54
8416;BME280;4245;42.120;24.732;2023-04-19T12:44:31;98711.25;;;23.99;55.51
8416;BME280;4245;42.120;24.732;2023-04-19T12:46:58;98712.34;;;24.18;53.85
8416;BME280;4245;42.120;24.732;2023-04-19T12:49:25;98717.69;;;23.92;53.40
8416;BME280;4245;42.120;24.732;2023-04-19T12:51:52;98713.13;;;23.99;53.06
8416;BME280;4245;42.120;24.732;2023-04-19T12:54:20;98723.22;;;24.44;50.93
8416;BME280;4245;42.120;24.732;2023-04-19T12:56:47;98737.34;;;25.05;48.75
8416;BME280;4245;42.120;24.732;2023-04-19T12:59:14;98740.22;;;25.24;48.63
8416;BME280;4245;42.120;24.732;2023-04-19T13:01:41;98738.00;;;25.59;48.42
8416;BME280;4245;42.120;24.732;2023-04-19T13:04:08;98744.56;;;25.82;48.21
8416;BME280;4245;42.120;24.732;2023-04-19T13:06:37;98748.88;;;25.52;49.10
8416;BME280;4245;42.120;24.732;2023-04-19T13:09:05;98746.09;;;25.21;49.63
8416;BME280;4245;42.120;24.732;2023-04-19T13:11:34;98738.63;;;24.83;50.86
8416;BME280;4245;42.120;24.732;2023-04-19T13:14:01;98743.81;;;24.12;51.73